sensor_id;sensor_type;location;lat;lon;timestamp;P1;durP1;ratioP1;P2;durP2;ratioP2
32297;SDS011;18782;48.984;8.548;2023-05-27T00:00:49;8.18;;;4.38;;
32297;SDS011;18782;48.984;8.548;2023-05-27T00:03:18;4.50;;;3.22;;
32297;SDS011;18782;48.984;8.548;2023-05-27T00:05:46;7.25;;;3.83;;
32297;SDS011;18782;48.984;8.548;2023-05-27T00:08:14;9.98;;;4.68;;
32297;SDS011;18782;48.984;8.548;2023-05-27T00:10:42;9.40;;;4.63;;
32297;SDS011;18782;48.984;8.548;2023-05-27T00:13:10;8.73;;;4.40;;
32297;SDS011;18782;48.984;8.548;2023-05-27T00:15:39;7.45;;;3.95;;
32297;SDS011;18782;48.984;8.548;2023-05-27T00:18:07;7.97;;;4.10;;
32297;SDS011;18782;48.984;8.548;2023-05-27T00:20:36;6.53;;;3.88;;
32297;SDS011;18782;48.984;8.548;2023-05-27T00:23:04;8.70;;;4.63;;
32297;SDS011;18782;48.984;8.548;2023-05-27T00:25:32;9.75;;;4.38;;
32297;SDS011;18782;48.984;8.548;2023-05-27T00:28:00;6.90;;;3.55;;
32297;SDS011;18782;48.984;8.548;2023-05-27T00:30:28;8.20;;;4.00;;
32297;SDS011;18782;48.984;8.548;2023-05-27T00:32:56;7.28;;;4.47;;
32297;SDS011;18782;48.984;8.548;2023-05-27T00:35:24;6.72;;;3.90;;
32297;SDS011;18782;48.984;8.548;2023-05-27T00:37:53;7.07;;;3.70;;
32297;SDS011;18782;48.984;8.548;2023-05-27T00:40:21;7.45;;;4.05;;
32297;SDS011;18782;48.984;8.548;2023-05-27T00:42:50;11.00;;;3.90;;
32297;SDS011;18782;48.984;8.548;2023-05-27T00:45:17;5.15;;;3.97;;
32297;SDS011;18782;48.984;8.548;2023-05-27T00:47:45;8.50;;;4.50;;
32297;SDS011;18782;48.984;8.548;2023-05-27T00:50:13;9.13;;;3.83;;
32297;SDS011;18782;48.984;8.548;2023-05-27T00:52:43;6.70;;;3.70;;
32297;SDS011;18782;48.984;8.548;2023-05-27T00:55:12;6.78;;;3.97;;
32297;SDS011;18782;48.984;8.548;2023-05-27T00:57:40;8.80;;;3.85;;
32297;SDS011;18782;48.984;8.548;2023-05-27T01:00:09;5.85;;;3.40;;
32297;SDS011;18782;48.984;8.548;2023-05-27T01:02:38;9.38;;;4.03;;
32297;SDS011;18782;48.984;8.548;2023-05-27T01:05:08;6.43;;;3.47;;
32297;SDS011;18782;48.984;8.548;2023-05-27T01:07:42;6.20;;;3.85;;
32297;SDS011;18782;48.984;8.548;2023-05-27T01:10:28;5.82;;;4.03;;
32297;SDS011;18782;48.984;8.548;2023-05-27T01:13:01;7.60;;;3.85;;
32297;SDS011;18782;48.984;8.548;2023-05-27T01:15:33;8.05;;;3.85;;
32297;SDS011;18782;48.984;8.548;2023-05-27T01:18:02;8.90;;;4.57;;
32297;SDS011;18782;48.984;8.548;2023-05-27T01:20:30;7.05;;;3.85;;
32297;SDS011;18782;48.984;8.548;2023-05-27T01:23:01;8.80;;;3.95;;
32297;SDS011;18782;48.984;8.548;2023-05-27T01:25:30;5.93;;;3.95;;
32297;SDS011;18782;48.984;8.548;2023-05-27T01:27:57;6.85;;;3.55;;
32297;SDS011;18782;48.984;8.548;2023-05-27T01:30:25;8.20;;;4.03;;
32297;SDS011;18782;48.984;8.548;2023-05-27T01:32:55;5.85;;;3.90;;
32297;SDS011;18782;48.984;8.548;2023-05-27T01:35:30;8.27;;;3.67;;
32297;SDS011;18782;48.984;8.548;2023-05-27T01:38:04;6.53;;;3.88;;
32297;SDS011;18782;48.984;8.548;2023-05-27T01:40:37;8.95;;;3.50;;
32297;SDS011;18782;48.984;8.548;2023-05-27T01:43:05;8.73;;;3.30;;
32297;SDS011;18782;48.984;8.548;2023-05-27T01:45:34;8.50;;;3.63;;
32297;SDS011;18782;48.984;8.548;2023-05-27T01:48:02;8.55;;;3.85;;
32297;SDS011;18782;48.984;8.548;2023-05-27T01:50:30;8.15;;;3.92;;
32297;SDS011;18782;48.984;8.548;2023-05-27T01:52:59;8.15;;;4.28;;
32297;SDS011;18782;48.984;8.548;2023-05-27T01:55:29;7.95;;;4.60;;
32297;SDS011;18782;48.984;8.548;2023-05-27T01:57:58;8.45;;;4.32;;
32297;SDS011;18782;48.984;8.548;2023-05-27T02:00:25;6.57;;;4.03;;
32297;SDS011;18782;48.984;8.548;2023-05-27T02:02:53;6.28;;;4.22;;
32297;SDS011;18782;48.984;8.548;2023-05-27T02:05:21;10.15;;;3.97;;
32297;SDS011;18782;48.984;8.548;2023-05-27T02:07:49;9.40;;;4.53;;
32297;SDS011;18782;48.984;8.548;2023-05-27T02:10:16;9.48;;;4.18;;
32297;SDS011;18782;48.984;8.548;2023-05-27T02:12:47;7.90;;;4.20;;
32297;SDS011;18782;48.984;8.548;2023-05-27T02:15:15;7.40;;;4.47;;
32297;SDS011;18782;48.984;8.548;2023-05-27T02:26:01;7.15;;;4.50;;
32297;SDS011;18782;48.984;8.548;2023-05-27T02:28:30;7.43;;;4.53;;
32297;SDS011;18782;48.984;8.548;2023-05-27T02:30:59;8.27;;;4.70;;
32297;SDS011;18782;48.984;8.548;2023-05-27T02:33:27;5.85;;;4.13;;
32297;SDS011;18782;48.984;8.548;2023-05-27T02:35:55;8.52;;;4.82;;
32297;SDS011;18782;48.984;8.548;2023-05-27T02:38:23;6.82;;;4.63;;
32297;SDS011;18782;48.984;8.548;2023-05-27T02:40:50;8.20;;;4.65;;
32297;SDS011;18782;48.984;8.548;2023-05-27T02:43:19;12.18;;;4.80;;
32297;SDS011;18782;48.984;8.548;2023-05-27T02:45:48;8.18;;;4.82;;
32297;SDS011;18782;48.984;8.548;2023-05-27T02:48:17;9.43;;;4.53;;
32297;SDS011;18782;48.984;8.548;2023-05-27T02:50:44;7.85;;;4.32;;
32297;SDS011;18782;48.984;8.548;2023-05-27T02:53:12;9.20;;;4.53;;
32297;SDS011;18782;48.984;8.548;2023-05-27T02:55:42;8.07;;;4.88;;
32297;SDS011;18782;48.984;8.548;2023-05-27T02:58:10;7.35;;;4.50;;
32297;SDS011;18782;48.984;8.548;2023-05-27T03:00:37;6.70;;;4.65;;
32297;SDS011;18782;48.984;8.548;2023-05-27T03:03:06;8.55;;;5.03;;
32297;SDS011;18782;48.984;8.548;2023-05-27T03:05:35;7.32;;;4.95;;
32297;SDS011;18782;48.984;8.548;2023-05-27T03:08:02;8.05;;;4.95;;
32297;SDS011;18782;48.984;8.548;2023-05-27T03:10:32;9.48;;;4.45;;
32297;SDS011;18782;48.984;8.548;2023-05-27T03:13:00;9.68;;;5.40;;
32297;SDS011;18782;48.984;8.548;2023-05-27T03:15:28;9.65;;;5.18;;
32297;SDS011;18782;48.984;8.548;2023-05-27T03:17:57;10.10;;;6.18;;
32297;SDS011;18782;48.984;8.548;2023-05-27T03:20:27;9.52;;;5.78;;
32297;SDS011;18782;48.984;8.548;2023-05-27T03:22:55;8.32;;;5.03;;
32297;SDS011;18782;48.984;8.548;2023-05-27T03:25:23;7.57;;;4.75;;
32297;SDS011;18782;48.984;8.548;2023-05-27T03:27:51;8.30;;;4.82;;
32297;SDS011;18782;48.984;8.548;2023-05-27T03:30:19;6.88;;;4.63;;
32297;SDS011;18782;48.984;8.548;2023-05-27T03:32:51;7.35;;;4.50;;
32297;SDS011;18782;48.984;8.548;2023-05-27T03:35:27;8.38;;;4.28;;
32297;SDS011;18782;48.984;8.548;2023-05-27T03:37:55;6.65;;;4.35;;
32297;SDS011;18782;48.984;8.548;2023-05-27T03:40:22;9.70;;;5.10;;
32297;SDS011;18782;48.984;8.548;2023-05-27T03:42:50;7.03;;;4.50;;
32297;SDS011;18782;48.984;8.548;2023-05-27T03:45:21;10.10;;;4.95;;
32297;SDS011;18782;48.984;8.548;2023-05-27T03:47:50;7.10;;;4.70;;
32297;SDS011;18782;48.984;8.548;2023-05-27T03:50:19;6.28;;;4.00;;
32297;SDS011;18782;48.984;8.548;2023-05-27T03:52:48;7.10;;;4.85;;
32297;SDS011;18782;48.984;8.548;2023-05-27T03:55:16;8.48;;;5.13;;
32297;SDS011;18782;48.984;8.548;2023-05-27T03:57:44;9.65;;;5.05;;
32297;SDS011;18782;48.984;8.548;2023-05-27T04:00:11;7.47;;;4.63;;
32297;SDS011;18782;48.984;8.548;2023-05-27T04:02:49;7.03;;;4.57;;
32297;SDS011;18782;48.984;8.548;2023-05-27T04:05:16;6.53;;;4.50;;
32297;SDS011;18782;48.984;8.548;2023-05-27T04:07:44;7.82;;;4.57;;
32297;SDS011;18782;48.984;8.548;2023-05-27T04:10:13;7.47;;;4.90;;
32297;SDS011;18782;48.984;8.548;2023-05-27T04:12:41;7.45;;;4.72;;
32297;SDS011;18782;48.984;8.548;2023-05-27T04:15:09;8.00;;;4.57;;
32297;SDS011;18782;48.984;8.548;2023-05-27T04:17:36;8.20;;;4.38;;
32297;SDS011;18782;48.984;8.548;2023-05-27T04:20:07;6.90;;;4.32;;
32297;SDS011;18782;48.984;8.548;2023-05-27T04:22:43;7.97;;;4.97;;
32297;SDS011;18782;48.984;8.548;2023-05-27T04:25:11;7.72;;;4.95;;
32297;SDS011;18782;48.984;8.548;2023-05-27T04:27:58;7.35;;;4.25;;
32297;SDS011;18782;48.984;8.548;2023-05-27T04:30:27;7.82;;;4.28;;
32297;SDS011;18782;48.984;8.548;2023-05-27T04:32:56;7.22;;;3.85;;
32297;SDS011;18782;48.984;8.548;2023-05-27T04:35:24;5.40;;;4.03;;
32297;SDS011;18782;48.984;8.548;2023-05-27T04:37:52;9.48;;;5.03;;
32297;SDS011;18782;48.984;8.548;2023-05-27T04:40:20;8.52;;;4.50;;
32297;SDS011;18782;48.984;8.548;2023-05-27T04:43:09;8.32;;;4.63;;
32297;SDS011;18782;48.984;8.548;2023-05-27T04:45:38;6.00;;;4.45;;
32297;SDS011;18782;48.984;8.548;2023-05-27T04:48:06;9.90;;;4.90;;
32297;SDS011;18782;48.984;8.548;2023-05-27T04:50:34;8.30;;;4.68;;
32297;SDS011;18782;48.984;8.548;2023-05-27T04:53:02;12.65;;;6.03;;
32297;SDS011;18782;48.984;8.548;2023-05-27T04:55:33;8.20;;;5.28;;
32297;SDS011;18782;48.984;8.548;2023-05-27T04:58:03;8.77;;;5.22;;
32297;SDS011;18782;48.984;8.548;2023-05-27T05:00:33;8.68;;;4.30;;
32297;SDS011;18782;48.984;8.548;2023-05-27T05:03:05;7.82;;;4.20;;
32297;SDS011;18782;48.984;8.548;2023-05-27T05:05:35;7.13;;;4.90;;
32297;SDS011;18782;48.984;8.548;2023-05-27T05:08:06;9.85;;;5.20;;
32297;SDS011;18782;48.984;8.548;2023-05-27T05:10:34;10.48;;;5.20;;
32297;SDS011;18782;48.984;8.548;2023-05-27T05:13:03;7.82;;;4.43;;
32297;SDS011;18782;48.984;8.548;2023-05-27T05:15:31;7.80;;;4.57;;
32297;SDS011;18782;48.984;8.548;2023-05-27T05:18:00;8.55;;;4.57;;
32297;SDS011;18782;48.984;8.548;2023-05-27T05:20:28;8.20;;;4.70;;
32297;SDS011;18782;48.984;8.548;2023-05-27T05:22:57;8.43;;;4.43;;
32297;SDS011;18782;48.984;8.548;2023-05-27T05:25:25;8.13;;;4.50;;
32297;SDS011;18782;48.984;8.548;2023-05-27T05:27:54;8.35;;;4.13;;
32297;SDS011;18782;48.984;8.548;2023-05-27T05:30:22;9.77;;;4.60;;
32297;SDS011;18782;48.984;8.548;2023-05-27T05:32:52;5.32;;;3.63;;
32297;SDS011;18782;48.984;8.548;2023-05-27T05:35:22;8.68;;;4.60;;
32297;SDS011;18782;48.984;8.548;2023-05-27T05:37:56;8.30;;;4.55;;
32297;SDS011;18782;48.984;8.548;2023-05-27T05:40:23;10.57;;;5.50;;
32297;SDS011;18782;48.984;8.548;2023-05-27T05:43:09;18.52;;;9.88;;
32297;SDS011;18782;48.984;8.548;2023-05-27T05:45:37;8.95;;;4.55;;
32297;SDS011;18782;48.984;8.548;2023-05-27T05:48:05;9.90;;;5.10;;
32297;SDS011;18782;48.984;8.548;2023-05-27T05:50:35;6.25;;;3.78;;
32297;SDS011;18782;48.984;8.548;2023-05-27T05:53:04;9.48;;;4.05;;
32297;SDS011;18782;48.984;8.548;2023-05-27T05:55:32;14.73;;;6.93;;
32297;SDS011;18782;48.984;8.548;2023-05-27T05:58:00;9.30;;;4.20;;
32297;SDS011;18782;48.984;8.548;2023-05-27T06:00:29;9.57;;;4.50;;
32297;SDS011;18782;48.984;8.548;2023-05-27T06:03:16;9.68;;;3.22;;
32297;SDS011;18782;48.984;8.548;2023-05-27T06:05:49;8.25;;;2.50;;
32297;SDS011;18782;48.984;8.548;2023-05-27T06:08:16;10.15;;;2.63;;
32297;SDS011;18782;48.984;8.548;2023-05-27T06:10:54;7.88;;;2.15;;
32297;SDS011;18782;48.984;8.548;2023-05-27T06:13:22;7.10;;;2.75;;
32297;SDS011;18782;48.984;8.548;2023-05-27T06:15:53;10.43;;;2.50;;
32297;SDS011;18782;48.984;8.548;2023-05-27T06:18:22;9.38;;;2.90;;
32297;SDS011;18782;48.984;8.548;2023-05-27T06:20:52;8.43;;;2.53;;
32297;SDS011;18782;48.984;8.548;2023-05-27T06:23:22;10.23;;;2.97;;
32297;SDS011;18782;48.984;8.548;2023-05-27T06:26:13;7.25;;;2.35;;
32297;SDS011;18782;48.984;8.548;2023-05-27T06:28:47;6.90;;;2.25;;
32297;SDS011;18782;48.984;8.548;2023-05-27T06:31:15;6.05;;;2.33;;
32297;SDS011;18782;48.984;8.548;2023-05-27T06:33:43;10.77;;;3.55;;
32297;SDS011;18782;48.984;8.548;2023-05-27T06:36:12;19.45;;;7.70;;
32297;SDS011;18782;48.984;8.548;2023-05-27T06:38:41;7.25;;;3.33;;
32297;SDS011;18782;48.984;8.548;2023-05-27T06:41:09;7.22;;;2.25;;
32297;SDS011;18782;48.984;8.548;2023-05-27T06:43:43;11.00;;;2.65;;
32297;SDS011;18782;48.984;8.548;2023-05-27T06:46:17;9.52;;;2.30;;
32297;SDS011;18782;48.984;8.548;2023-05-27T06:48:53;11.77;;;2.70;;
32297;SDS011;18782;48.984;8.548;2023-05-27T06:51:22;16.58;;;3.80;;
32297;SDS011;18782;48.984;8.548;2023-05-27T06:53:52;7.00;;;2.28;;
32297;SDS011;18782;48.984;8.548;2023-05-27T06:56:28;10.57;;;2.33;;
32297;SDS011;18782;48.984;8.548;2023-05-27T06:59:10;8.63;;;2.50;;
32297;SDS011;18782;48.984;8.548;2023-05-27T07:01:39;8.90;;;2.33;;
32297;SDS011;18782;48.984;8.548;2023-05-27T07:04:10;6.18;;;1.90;;
32297;SDS011;18782;48.984;8.548;2023-05-27T07:07:01;15.25;;;3.05;;
32297;SDS011;18782;48.984;8.548;2023-05-27T07:09:29;10.95;;;2.90;;
32297;SDS011;18782;48.984;8.548;2023-05-27T07:11:57;7.85;;;2.65;;
32297;SDS011;18782;48.984;8.548;2023-05-27T07:14:46;8.90;;;2.53;;
32297;SDS011;18782;48.984;8.548;2023-05-27T07:17:14;8.80;;;2.85;;
32297;SDS011;18782;48.984;8.548;2023-05-27T07:19:42;8.88;;;2.97;;
32297;SDS011;18782;48.984;8.548;2023-05-27T07:22:16;9.13;;;2.20;;
32297;SDS011;18782;48.984;8.548;2023-05-27T07:24:45;9.23;;;2.47;;
32297;SDS011;18782;48.984;8.548;2023-05-27T07:27:13;11.07;;;3.15;;
32297;SDS011;18782;48.984;8.548;2023-05-27T07:29:49;10.75;;;3.00;;
32297;SDS011;18782;48.984;8.548;2023-05-27T07:32:31;8.63;;;2.70;;
32297;SDS011;18782;48.984;8.548;2023-05-27T07:34:59;9.20;;;2.85;;
32297;SDS011;18782;48.984;8.548;2023-05-27T07:37:28;10.63;;;3.13;;
32297;SDS011;18782;48.984;8.548;2023-05-27T07:39:56;10.23;;;3.53;;
32297;SDS011;18782;48.984;8.548;2023-05-27T07:42:24;11.60;;;2.67;;
32297;SDS011;18782;48.984;8.548;2023-05-27T07:44:53;8.65;;;2.60;;
32297;SDS011;18782;48.984;8.548;2023-05-27T07:47:21;11.48;;;2.90;;
32297;SDS011;18782;48.984;8.548;2023-05-27T07:49:50;8.02;;;2.08;;
32297;SDS011;18782;48.984;8.548;2023-05-27T07:52:28;8.40;;;2.50;;
32297;SDS011;18782;48.984;8.548;2023-05-27T07:54:57;10.85;;;2.45;;
32297;SDS011;18782;48.984;8.548;2023-05-27T07:57:25;9.10;;;2.90;;
32297;SDS011;18782;48.984;8.548;2023-05-27T07:59:54;8.98;;;2.63;;
32297;SDS011;18782;48.984;8.548;2023-05-27T08:02:29;9.57;;;2.25;;
32297;SDS011;18782;48.984;8.548;2023-05-27T08:04:57;9.07;;;2.58;;
32297;SDS011;18782;48.984;8.548;2023-05-27T08:07:48;9.05;;;2.40;;
32297;SDS011;18782;48.984;8.548;2023-05-27T08:10:35;9.77;;;2.40;;
32297;SDS011;18782;48.984;8.548;2023-05-27T08:13:16;6.70;;;2.17;;
32297;SDS011;18782;48.984;8.548;2023-05-27T08:15:59;7.47;;;2.30;;
32297;SDS011;18782;48.984;8.548;2023-05-27T08:18:39;10.25;;;2.72;;
32297;SDS011;18782;48.984;8.548;2023-05-27T08:21:14;7.85;;;2.25;;
32297;SDS011;18782;48.984;8.548;2023-05-27T08:24:08;6.47;;;2.17;;
32297;SDS011;18782;48.984;8.548;2023-05-27T08:26:46;8.40;;;2.80;;
32297;SDS011;18782;48.984;8.548;2023-05-27T08:29:18;8.38;;;2.10;;
32297;SDS011;18782;48.984;8.548;2023-05-27T08:32:12;9.15;;;2.63;;
32297;SDS011;18782;48.984;8.548;2023-05-27T08:34:40;9.02;;;3.15;;
32297;SDS011;18782;48.984;8.548;2023-05-27T08:37:08;8.90;;;2.80;;
32297;SDS011;18782;48.984;8.548;2023-05-27T08:39:40;8.90;;;2.70;;
32297;SDS011;18782;48.984;8.548;2023-05-27T08:42:24;9.52;;;2.83;;
32297;SDS011;18782;48.984;8.548;2023-05-27T08:44:52;6.15;;;2.42;;
32297;SDS011;18782;48.984;8.548;2023-05-27T08:47:20;9.40;;;2.75;;
32297;SDS011;18782;48.984;8.548;2023-05-27T08:49:47;11.82;;;3.00;;
32297;SDS011;18782;48.984;8.548;2023-05-27T08:52:17;10.02;;;2.70;;
32297;SDS011;18782;48.984;8.548;2023-05-27T08:54:47;9.25;;;3.47;;
32297;SDS011;18782;48.984;8.548;2023-05-27T08:57:17;9.15;;;2.95;;
32297;SDS011;18782;48.984;8.548;2023-05-27T08:59:48;6.78;;;2.50;;
32297;SDS011;18782;48.984;8.548;2023-05-27T09:02:16;8.07;;;2.33;;
32297;SDS011;18782;48.984;8.548;2023-05-27T09:04:47;8.15;;;2.58;;
32297;SDS011;18782;48.984;8.548;2023-05-27T09:07:16;8.35;;;3.40;;
32297;SDS011;18782;48.984;8.548;2023-05-27T09:09:53;5.60;;;2.53;;
32297;SDS011;18782;48.984;8.548;2023-05-27T09:12:24;9.27;;;3.10;;
32297;SDS011;18782;48.984;8.548;2023-05-27T09:14:53;10.60;;;3.10;;
32297;SDS011;18782;48.984;8.548;2023-05-27T09:17:22;9.90;;;2.90;;
32297;SDS011;18782;48.984;8.548;2023-05-27T09:19:50;8.23;;;2.85;;
32297;SDS011;18782;48.984;8.548;2023-05-27T09:22:19;7.43;;;2.55;;
32297;SDS011;18782;48.984;8.548;2023-05-27T09:24:49;8.25;;;2.60;;
32297;SDS011;18782;48.984;8.548;2023-05-27T09:27:19;13.05;;;3.38;;
32297;SDS011;18782;48.984;8.548;2023-05-27T09:32:25;9.05;;;3.00;;
32297;SDS011;18782;48.984;8.548;2023-05-27T09:34:53;7.88;;;2.85;;
32297;SDS011;18782;48.984;8.548;2023-05-27T09:37:24;8.32;;;2.95;;
32297;SDS011;18782;48.984;8.548;2023-05-27T09:39:52;7.78;;;3.20;;
32297;SDS011;18782;48.984;8.548;2023-05-27T09:42:21;12.48;;;3.88;;
32297;SDS011;18782;48.984;8.548;2023-05-27T09:44:48;8.55;;;2.60;;
32297;SDS011;18782;48.984;8.548;2023-05-27T09:47:16;9.60;;;2.85;;
32297;SDS011;18782;48.984;8.548;2023-05-27T09:49:46;12.10;;;3.20;;
32297;SDS011;18782;48.984;8.548;2023-05-27T09:52:16;11.82;;;3.45;;
32297;SDS011;18782;48.984;8.548;2023-05-27T09:54:46;8.07;;;3.08;;
32297;SDS011;18782;48.984;8.548;2023-05-27T09:57:16;8.50;;;2.88;;
32297;SDS011;18782;48.984;8.548;2023-05-27T09:59:46;12.25;;;3.22;;
32297;SDS011;18782;48.984;8.548;2023-05-27T10:02:16;9.20;;;3.88;;
32297;SDS011;18782;48.984;8.548;2023-05-27T10:04:45;9.00;;;3.40;;
32297;SDS011;18782;48.984;8.548;2023-05-27T10:07:16;8.80;;;3.22;;
32297;SDS011;18782;48.984;8.548;2023-05-27T10:09:56;8.07;;;2.70;;
32297;SDS011;18782;48.984;8.548;2023-05-27T10:12:24;6.82;;;2.60;;
32297;SDS011;18782;48.984;8.548;2023-05-27T10:14:54;10.15;;;2.83;;
32297;SDS011;18782;48.984;8.548;2023-05-27T10:17:23;10.25;;;3.40;;
32297;SDS011;18782;48.984;8.548;2023-05-27T10:19:55;11.02;;;3.35;;
32297;SDS011;18782;48.984;8.548;2023-05-27T10:22:23;7.18;;;3.10;;
32297;SDS011;18782;48.984;8.548;2023-05-27T10:24:51;9.55;;;3.00;;
32297;SDS011;18782;48.984;8.548;2023-05-27T10:27:19;9.02;;;3.40;;
32297;SDS011;18782;48.984;8.548;2023-05-27T10:29:57;10.23;;;2.88;;
32297;SDS011;18782;48.984;8.548;2023-05-27T10:32:25;8.80;;;3.00;;
32297;SDS011;18782;48.984;8.548;2023-05-27T10:34:54;10.77;;;3.80;;
32297;SDS011;18782;48.984;8.548;2023-05-27T10:37:26;11.00;;;3.05;;
32297;SDS011;18782;48.984;8.548;2023-05-27T10:40:00;10.85;;;2.80;;
32297;SDS011;18782;48.984;8.548;2023-05-27T10:42:32;8.97;;;2.67;;
32297;SDS011;18782;48.984;8.548;2023-05-27T10:45:08;9.48;;;3.40;;
32297;SDS011;18782;48.984;8.548;2023-05-27T10:47:37;11.57;;;3.33;;
32297;SDS011;18782;48.984;8.548;2023-05-27T10:50:11;7.85;;;3.30;;
32297;SDS011;18782;48.984;8.548;2023-05-27T10:52:41;10.15;;;3.65;;
32297;SDS011;18782;48.984;8.548;2023-05-27T10:55:09;9.93;;;3.20;;
32297;SDS011;18782;48.984;8.548;2023-05-27T10:57:39;10.82;;;4.22;;
32297;SDS011;18782;48.984;8.548;2023-05-27T11:00:09;9.73;;;3.30;;
32297;SDS011;18782;48.984;8.548;2023-05-27T11:02:43;9.50;;;3.40;;
32297;SDS011;18782;48.984;8.548;2023-05-27T11:05:13;10.95;;;3.05;;
32297;SDS011;18782;48.984;8.548;2023-05-27T11:07:42;9.27;;;3.38;;
32297;SDS011;18782;48.984;8.548;2023-05-27T11:10:09;6.35;;;2.53;;
32297;SDS011;18782;48.984;8.548;2023-05-27T11:12:38;7.40;;;2.97;;
32297;SDS011;18782;48.984;8.548;2023-05-27T11:15:12;7.53;;;2.90;;
32297;SDS011;18782;48.984;8.548;2023-05-27T11:17:40;9.43;;;3.13;;
32297;SDS011;18782;48.984;8.548;2023-05-27T11:20:08;8.25;;;2.80;;
32297;SDS011;18782;48.984;8.548;2023-05-27T11:22:36;7.88;;;3.28;;
32297;SDS011;18782;48.984;8.548;2023-05-27T11:25:05;12.25;;;4.93;;
32297;SDS011;18782;48.984;8.548;2023-05-27T11:27:35;8.55;;;3.20;;
32297;SDS011;18782;48.984;8.548;2023-05-27T11:30:07;9.15;;;3.00;;
32297;SDS011;18782;48.984;8.548;2023-05-27T11:32:39;10.32;;;3.10;;
32297;SDS011;18782;48.984;8.548;2023-05-27T11:35:12;8.60;;;3.00;;
32297;SDS011;18782;48.984;8.548;2023-05-27T11:37:49;6.97;;;3.00;;
32297;SDS011;18782;48.984;8.548;2023-05-27T11:40:17;6.85;;;3.30;;
32297;SDS011;18782;48.984;8.548;2023-05-27T11:42:45;8.90;;;3.28;;
32297;SDS011;18782;48.984;8.548;2023-05-27T11:45:16;9.93;;;3.97;;
32297;SDS011;18782;48.984;8.548;2023-05-27T11:47:46;6.85;;;3.08;;
32297;SDS011;18782;48.984;8.548;2023-05-27T11:50:17;7.80;;;2.92;;
32297;SDS011;18782;48.984;8.548;2023-05-27T11:52:49;9.98;;;3.03;;
32297;SDS011;18782;48.984;8.548;2023-05-27T11:55:18;9.63;;;4.00;;
32297;SDS011;18782;48.984;8.548;2023-05-27T11:57:46;6.65;;;2.88;;
32297;SDS011;18782;48.984;8.548;2023-05-27T12:00:13;9.60;;;3.22;;
32297;SDS011;18782;48.984;8.548;2023-05-27T12:02:41;7.78;;;3.30;;
32297;SDS011;18782;48.984;8.548;2023-05-27T12:05:10;7.43;;;2.90;;
32297;SDS011;18782;48.984;8.548;2023-05-27T12:07:51;7.45;;;3.00;;
32297;SDS011;18782;48.984;8.548;2023-05-27T12:10:19;7.53;;;3.28;;
32297;SDS011;18782;48.984;8.548;2023-05-27T12:12:46;11.52;;;3.50;;
32297;SDS011;18782;48.984;8.548;2023-05-27T12:15:14;7.80;;;3.10;;
32297;SDS011;18782;48.984;8.548;2023-05-27T12:17:42;6.10;;;3.20;;
32297;SDS011;18782;48.984;8.548;2023-05-27T12:20:11;7.57;;;3.35;;
32297;SDS011;18782;48.984;8.548;2023-05-27T12:22:39;7.05;;;3.30;;
32297;SDS011;18782;48.984;8.548;2023-05-27T12:25:07;7.25;;;2.97;;
32297;SDS011;18782;48.984;8.548;2023-05-27T12:27:35;8.50;;;2.90;;
32297;SDS011;18782;48.984;8.548;2023-05-27T12:30:03;7.70;;;3.42;;
32297;SDS011;18782;48.984;8.548;2023-05-27T12:32:31;6.85;;;3.20;;
32297;SDS011;18782;48.984;8.548;2023-05-27T12:34:58;9.93;;;3.63;;
32297;SDS011;18782;48.984;8.548;2023-05-27T12:37:28;7.35;;;3.35;;
32297;SDS011;18782;48.984;8.548;2023-05-27T12:39:55;8.52;;;4.13;;
32297;SDS011;18782;48.984;8.548;2023-05-27T12:42:23;6.93;;;3.00;;
32297;SDS011;18782;48.984;8.548;2023-05-27T12:44:51;7.57;;;3.08;;
32297;SDS011;18782;48.984;8.548;2023-05-27T12:47:18;7.35;;;3.15;;
32297;SDS011;18782;48.984;8.548;2023-05-27T12:49:46;10.52;;;3.78;;
32297;SDS011;18782;48.984;8.548;2023-05-27T12:52:14;9.45;;;3.38;;
32297;SDS011;18782;48.984;8.548;2023-05-27T12:54:43;6.38;;;3.00;;
32297;SDS011;18782;48.984;8.548;2023-05-27T12:57:11;7.93;;;3.13;;
32297;SDS011;18782;48.984;8.548;2023-05-27T12:59:39;6.60;;;2.70;;
32297;SDS011;18782;48.984;8.548;2023-05-27T13:02:08;7.70;;;3.33;;
32297;SDS011;18782;48.984;8.548;2023-05-27T13:04:36;8.52;;;3.08;;
32297;SDS011;18782;48.984;8.548;2023-05-27T13:07:04;8.68;;;3.05;;
32297;SDS011;18782;48.984;8.548;2023-05-27T13:09:32;6.15;;;2.70;;
32297;SDS011;18782;48.984;8.548;2023-05-27T13:12:01;8.60;;;3.22;;
32297;SDS011;18782;48.984;8.548;2023-05-27T13:14:29;6.75;;;3.13;;
32297;SDS011;18782;48.984;8.548;2023-05-27T13:16:57;5.95;;;3.10;;
32297;SDS011;18782;48.984;8.548;2023-05-27T13:19:25;5.50;;;2.60;;
32297;SDS011;18782;48.984;8.548;2023-05-27T13:21:53;6.82;;;2.80;;
32297;SDS011;18782;48.984;8.548;2023-05-27T13:24:21;8.07;;;3.15;;
32297;SDS011;18782;48.984;8.548;2023-05-27T13:26:49;6.43;;;3.33;;
32297;SDS011;18782;48.984;8.548;2023-05-27T13:29:19;5.85;;;3.40;;
32297;SDS011;18782;48.984;8.548;2023-05-27T13:31:46;6.50;;;3.05;;
32297;SDS011;18782;48.984;8.548;2023-05-27T13:34:15;7.40;;;3.08;;
32297;SDS011;18782;48.984;8.548;2023-05-27T13:36:43;5.32;;;3.10;;
32297;SDS011;18782;48.984;8.548;2023-05-27T13:39:11;7.47;;;2.92;;
32297;SDS011;18782;48.984;8.548;2023-05-27T13:41:39;6.70;;;3.60;;
32297;SDS011;18782;48.984;8.548;2023-05-27T13:44:06;6.95;;;2.90;;
32297;SDS011;18782;48.984;8.548;2023-05-27T13:46:35;7.57;;;3.20;;
32297;SDS011;18782;48.984;8.548;2023-05-27T13:49:03;6.30;;;2.92;;
32297;SDS011;18782;48.984;8.548;2023-05-27T13:51:31;5.60;;;3.33;;
32297;SDS011;18782;48.984;8.548;2023-05-27T13:53:59;7.15;;;3.22;;
32297;SDS011;18782;48.984;8.548;2023-05-27T13:56:26;6.40;;;3.17;;
32297;SDS011;18782;48.984;8.548;2023-05-27T13:58:54;8.27;;;3.33;;
32297;SDS011;18782;48.984;8.548;2023-05-27T14:01:22;6.47;;;2.90;;
32297;SDS011;18782;48.984;8.548;2023-05-27T14:03:51;7.07;;;2.75;;
32297;SDS011;18782;48.984;8.548;2023-05-27T14:06:19;5.90;;;3.10;;
32297;SDS011;18782;48.984;8.548;2023-05-27T14:08:47;6.50;;;2.92;;
32297;SDS011;18782;48.984;8.548;2023-05-27T14:11:15;7.03;;;2.65;;
32297;SDS011;18782;48.984;8.548;2023-05-27T14:13:42;6.50;;;2.90;;
32297;SDS011;18782;48.984;8.548;2023-05-27T14:16:10;4.75;;;2.90;;
32297;SDS011;18782;48.984;8.548;2023-05-27T14:18:38;5.75;;;2.60;;
32297;SDS011;18782;48.984;8.548;2023-05-27T14:21:07;6.05;;;3.10;;
32297;SDS011;18782;48.984;8.548;2023-05-27T14:23:35;6.28;;;3.20;;
32297;SDS011;18782;48.984;8.548;2023-05-27T14:26:02;7.43;;;3.30;;
32297;SDS011;18782;48.984;8.548;2023-05-27T14:28:30;5.82;;;2.90;;
32297;SDS011;18782;48.984;8.548;2023-05-27T14:30:58;8.18;;;3.20;;
32297;SDS011;18782;48.984;8.548;2023-05-27T14:33:26;7.05;;;3.28;;
32297;SDS011;18782;48.984;8.548;2023-05-27T14:35:54;6.28;;;3.58;;
32297;SDS011;18782;48.984;8.548;2023-05-27T14:38:24;7.60;;;3.22;;
32297;SDS011;18782;48.984;8.548;2023-05-27T14:40:51;7.15;;;3.67;;
32297;SDS011;18782;48.984;8.548;2023-05-27T14:43:19;6.03;;;3.22;;
32297;SDS011;18782;48.984;8.548;2023-05-27T14:45:47;6.38;;;3.20;;
32297;SDS011;18782;48.984;8.548;2023-05-27T14:48:15;6.22;;;3.15;;
32297;SDS011;18782;48.984;8.548;2023-05-27T14:50:42;7.30;;;2.78;;
32297;SDS011;18782;48.984;8.548;2023-05-27T14:53:11;6.22;;;2.80;;
32297;SDS011;18782;48.984;8.548;2023-05-27T14:55:40;6.65;;;2.95;;
32297;SDS011;18782;48.984;8.548;2023-05-27T14:58:07;6.05;;;3.00;;
32297;SDS011;18782;48.984;8.548;2023-05-27T15:00:35;4.38;;;2.60;;
32297;SDS011;18782;48.984;8.548;2023-05-27T15:03:03;5.55;;;2.75;;
32297;SDS011;18782;48.984;8.548;2023-05-27T15:05:31;7.10;;;2.88;;
32297;SDS011;18782;48.984;8.548;2023-05-27T15:07:58;5.00;;;2.78;;
32297;SDS011;18782;48.984;8.548;2023-05-27T15:10:26;5.38;;;2.65;;
32297;SDS011;18782;48.984;8.548;2023-05-27T15:12:55;6.60;;;3.40;;